Jackson Center, Ohio
Current Conditions -  °F | °C
As of 9:50 AM on Tuesday 21 Oct 2014 (Local Time) from KEDJ Reporting Station
Overcast Overcast  
Wind Chill: 40°   Ceiling: 1000
Heat Index: 45°   Visibility: 10mi
Dew Point: 45°   Wind: 8mph
Humidity: 100%   Direction: 320°NW
Pressure: 30"   Gusts: NA
Location:  40.44°N, 84.04°W
Report Text: KEDJ 211350Z AUTO 32007KT 10SM BKN010 OVC014 07/07 A3000 RMK AO1
Loading
Personal Weather Stations






























Interactive Weather Map
Tropical Storm Tracking
New forecast layout! Learn more

10-Day Weather Forecast

Advertisements
Track Severe Weather on mobile